sensor_id;sensor_type;location;lat;lon;timestamp;temperature;humidity
64111;DHT22;50401;48.188;11.566;2022-10-17T00:01:51;16.22;76.94
64111;DHT22;50401;48.188;11.566;2022-10-17T00:04:16;16.19;76.81
64111;DHT22;50401;48.188;11.566;2022-10-17T00:06:41;16.15;76.93
64111;DHT22;50401;48.188;11.566;2022-10-17T00:09:07;16.08;77.06
64111;DHT22;50401;48.188;11.566;2022-10-17T00:11:33;16.01;77.05
64111;DHT22;50401;48.188;11.566;2022-10-17T00:13:59;16.05;76.98
64111;DHT22;50401;48.188;11.566;2022-10-17T00:18:49;15.97;77.12
64111;DHT22;50401;48.188;11.566;2022-10-17T00:21:15;15.78;77.43
64111;DHT22;50401;48.188;11.566;2022-10-17T00:23:41;15.44;78.82
64111;DHT22;50401;48.188;11.566;2022-10-17T00:26:06;15.30;79.40
64111;DHT22;50401;48.188;11.566;2022-10-17T00:28:31;15.28;79.58
64111;DHT22;50401;48.188;11.566;2022-10-17T00:30:57;15.36;79.41
64111;DHT22;50401;48.188;11.566;2022-10-17T00:33:23;15.42;79.16
64111;DHT22;50401;48.188;11.566;2022-10-17T00:35:48;15.47;78.77
64111;DHT22;50401;48.188;11.566;2022-10-17T00:38:13;15.51;78.56
64111;DHT22;50401;48.188;11.566;2022-10-17T00:40:38;15.54;78.49
64111;DHT22;50401;48.188;11.566;2022-10-17T00:43:05;15.58;78.32
64111;DHT22;50401;48.188;11.566;2022-10-17T00:45:30;15.56;78.19
64111;DHT22;50401;48.188;11.566;2022-10-17T00:48:05;15.54;77.98
64111;DHT22;50401;48.188;11.566;2022-10-17T00:50:32;15.63;77.92
64111;DHT22;50401;48.188;11.566;2022-10-17T00:52:59;15.57;77.89
64111;DHT22;50401;48.188;11.566;2022-10-17T00:55:30;15.44;78.32
64111;DHT22;50401;48.188;11.566;2022-10-17T00:57:56;15.21;79.33
64111;DHT22;50401;48.188;11.566;2022-10-17T01:00:21;15.19;79.46
64111;DHT22;50401;48.188;11.566;2022-10-17T01:02:48;15.25;79.26
64111;DHT22;50401;48.188;11.566;2022-10-17T01:05:14;15.32;79.01
64111;DHT22;50401;48.188;11.566;2022-10-17T01:07:40;15.35;78.87
64111;DHT22;50401;48.188;11.566;2022-10-17T01:10:05;15.40;78.50
64111;DHT22;50401;48.188;11.566;2022-10-17T01:12:35;15.25;78.59
64111;DHT22;50401;48.188;11.566;2022-10-17T01:23:00;14.26;81.97
64111;DHT22;50401;48.188;11.566;2022-10-17T01:25:49;14.24;82.30
64111;DHT22;50401;48.188;11.566;2022-10-17T01:30:50;14.14;82.52
64111;DHT22;50401;48.188;11.566;2022-10-17T01:39:11;13.98;82.60
64111;DHT22;50401;48.188;11.566;2022-10-17T01:41:43;13.84;82.93
64111;DHT22;50401;48.188;11.566;2022-10-17T01:46:39;14.01;82.02
64111;DHT22;50401;48.188;11.566;2022-10-17T01:49:05;13.97;81.96
64111;DHT22;50401;48.188;11.566;2022-10-17T01:51:37;14.07;81.86
64111;DHT22;50401;48.188;11.566;2022-10-17T01:56:47;14.40;80.83
64111;DHT22;50401;48.188;11.566;2022-10-17T01:59:15;14.49;80.42
64111;DHT22;50401;48.188;11.566;2022-10-17T02:01:41;14.49;79.89
64111;DHT22;50401;48.188;11.566;2022-10-17T02:04:07;14.40;80.03
64111;DHT22;50401;48.188;11.566;2022-10-17T02:06:34;14.46;79.84
64111;DHT22;50401;48.188;11.566;2022-10-17T02:09:00;14.50;79.66
64111;DHT22;50401;48.188;11.566;2022-10-17T02:11:26;14.47;79.62
64111;DHT22;50401;48.188;11.566;2022-10-17T02:21:23;14.21;80.20
64111;DHT22;50401;48.188;11.566;2022-10-17T02:26:18;13.84;81.37
64111;DHT22;50401;48.188;11.566;2022-10-17T02:29:06;13.74;81.99
64111;DHT22;50401;48.188;11.566;2022-10-17T02:31:32;13.59;82.43
64111;DHT22;50401;48.188;11.566;2022-10-17T02:34:04;13.66;82.20
64111;DHT22;50401;48.188;11.566;2022-10-17T02:36:41;13.55;82.58
64111;DHT22;50401;48.188;11.566;2022-10-17T02:39:09;13.63;82.32
64111;DHT22;50401;48.188;11.566;2022-10-17T02:41:35;13.77;81.80
64111;DHT22;50401;48.188;11.566;2022-10-17T02:44:01;13.90;81.38
64111;DHT22;50401;48.188;11.566;2022-10-17T02:46:27;13.94;80.94
64111;DHT22;50401;48.188;11.566;2022-10-17T02:48:57;13.90;80.81
64111;DHT22;50401;48.188;11.566;2022-10-17T02:56:17;14.15;80.15
64111;DHT22;50401;48.188;11.566;2022-10-17T02:58:45;14.28;79.73
64111;DHT22;50401;48.188;11.566;2022-10-17T03:01:11;14.33;79.28
64111;DHT22;50401;48.188;11.566;2022-10-17T03:03:37;14.40;79.09
64111;DHT22;50401;48.188;11.566;2022-10-17T03:06:02;14.47;78.90
64111;DHT22;50401;48.188;11.566;2022-10-17T03:08:27;14.46;78.76
64111;DHT22;50401;48.188;11.566;2022-10-17T03:10:52;14.45;78.69
64111;DHT22;50401;48.188;11.566;2022-10-17T03:13:18;14.55;78.47
64111;DHT22;50401;48.188;11.566;2022-10-17T03:15:43;14.50;78.51
64111;DHT22;50401;48.188;11.566;2022-10-17T03:18:08;14.55;78.24
64111;DHT22;50401;48.188;11.566;2022-10-17T03:20:34;14.50;78.02
64111;DHT22;50401;48.188;11.566;2022-10-17T03:22:59;14.46;78.10
64111;DHT22;50401;48.188;11.566;2022-10-17T03:25:25;14.39;78.45
64111;DHT22;50401;48.188;11.566;2022-10-17T03:27:50;14.40;78.57
64111;DHT22;50401;48.188;11.566;2022-10-17T03:30:16;14.40;78.43
64111;DHT22;50401;48.188;11.566;2022-10-17T03:32:41;14.46;78.22
64111;DHT22;50401;48.188;11.566;2022-10-17T03:35:06;14.35;78.39
64111;DHT22;50401;48.188;11.566;2022-10-17T03:37:32;14.32;78.31
64111;DHT22;50401;48.188;11.566;2022-10-17T03:39:57;14.29;78.37
64111;DHT22;50401;48.188;11.566;2022-10-17T03:42:22;14.32;78.68
64111;DHT22;50401;48.188;11.566;2022-10-17T03:44:47;14.25;78.72
64111;DHT22;50401;48.188;11.566;2022-10-17T03:47:13;14.26;78.73
64111;DHT22;50401;48.188;11.566;2022-10-17T03:49:38;14.25;78.59
64111;DHT22;50401;48.188;11.566;2022-10-17T03:52:03;14.25;78.60
64111;DHT22;50401;48.188;11.566;2022-10-17T03:54:29;14.30;78.40
64111;DHT22;50401;48.188;11.566;2022-10-17T03:56:54;14.14;78.77
64111;DHT22;50401;48.188;11.566;2022-10-17T03:59:19;14.14;79.76
64111;DHT22;50401;48.188;11.566;2022-10-17T04:01:45;14.02;80.01
64111;DHT22;50401;48.188;11.566;2022-10-17T04:04:10;14.11;79.90
64111;DHT22;50401;48.188;11.566;2022-10-17T04:06:35;14.15;79.21
64111;DHT22;50401;48.188;11.566;2022-10-17T04:09:01;14.04;78.95
64111;DHT22;50401;48.188;11.566;2022-10-17T04:11:29;14.05;79.03
64111;DHT22;50401;48.188;11.566;2022-10-17T04:13:55;14.08;79.05
64111;DHT22;50401;48.188;11.566;2022-10-17T04:16:21;14.10;78.89
64111;DHT22;50401;48.188;11.566;2022-10-17T04:18:46;14.07;78.83
64111;DHT22;50401;48.188;11.566;2022-10-17T04:21:12;14.10;78.92
64111;DHT22;50401;48.188;11.566;2022-10-17T04:23:37;14.12;78.85
64111;DHT22;50401;48.188;11.566;2022-10-17T04:26:04;14.08;78.68
64111;DHT22;50401;48.188;11.566;2022-10-17T04:28:30;14.05;78.68
64111;DHT22;50401;48.188;11.566;2022-10-17T04:30:56;13.98;78.77
64111;DHT22;50401;48.188;11.566;2022-10-17T04:33:22;13.97;78.73
64111;DHT22;50401;48.188;11.566;2022-10-17T04:35:54;13.94;78.78
64111;DHT22;50401;48.188;11.566;2022-10-17T04:38:19;13.97;78.71
64111;DHT22;50401;48.188;11.566;2022-10-17T04:40:45;13.94;78.74
64111;DHT22;50401;48.188;11.566;2022-10-17T04:43:10;13.94;78.66
64111;DHT22;50401;48.188;11.566;2022-10-17T04:45:35;13.98;78.57
64111;DHT22;50401;48.188;11.566;2022-10-17T04:48:00;13.97;78.57
64111;DHT22;50401;48.188;11.566;2022-10-17T04:50:26;13.97;78.62
64111;DHT22;50401;48.188;11.566;2022-10-17T04:52:51;13.91;78.62
64111;DHT22;50401;48.188;11.566;2022-10-17T04:55:16;13.87;78.84
64111;DHT22;50401;48.188;11.566;2022-10-17T04:57:41;13.84;78.87
64111;DHT22;50401;48.188;11.566;2022-10-17T05:00:07;13.83;78.95
64111;DHT22;50401;48.188;11.566;2022-10-17T05:02:33;13.81;78.81
64111;DHT22;50401;48.188;11.566;2022-10-17T05:04:58;13.80;78.74
64111;DHT22;50401;48.188;11.566;2022-10-17T05:07:24;13.76;78.85
64111;DHT22;50401;48.188;11.566;2022-10-17T05:09:49;13.85;78.64
64111;DHT22;50401;48.188;11.566;2022-10-17T05:12:14;13.78;78.76
64111;DHT22;50401;48.188;11.566;2022-10-17T05:14:39;13.73;78.85
64111;DHT22;50401;48.188;11.566;2022-10-17T05:17:05;13.77;78.79
64111;DHT22;50401;48.188;11.566;2022-10-17T05:19:30;13.74;78.75
64111;DHT22;50401;48.188;11.566;2022-10-17T05:21:55;13.76;78.58
64111;DHT22;50401;48.188;11.566;2022-10-17T05:24:20;13.76;78.66
64111;DHT22;50401;48.188;11.566;2022-10-17T05:26:48;13.76;78.46
64111;DHT22;50401;48.188;11.566;2022-10-17T05:29:13;13.69;78.53
64111;DHT22;50401;48.188;11.566;2022-10-17T05:31:39;13.65;78.61
64111;DHT22;50401;48.188;11.566;2022-10-17T05:34:04;13.65;78.72
64111;DHT22;50401;48.188;11.566;2022-10-17T05:36:29;13.50;79.07
64111;DHT22;50401;48.188;11.566;2022-10-17T05:38:55;13.58;78.96
64111;DHT22;50401;48.188;11.566;2022-10-17T05:41:20;13.69;78.66
64111;DHT22;50401;48.188;11.566;2022-10-17T05:43:45;13.74;78.60
64111;DHT22;50401;48.188;11.566;2022-10-17T05:46:10;13.80;78.38
64111;DHT22;50401;48.188;11.566;2022-10-17T05:48:36;13.85;78.05
64111;DHT22;50401;48.188;11.566;2022-10-17T05:51:06;13.90;77.88
64111;DHT22;50401;48.188;11.566;2022-10-17T05:53:33;14.02;77.48
64111;DHT22;50401;48.188;11.566;2022-10-17T05:55:59;13.97;77.44
64111;DHT22;50401;48.188;11.566;2022-10-17T05:58:25;14.05;77.40
64111;DHT22;50401;48.188;11.566;2022-10-17T06:00:50;14.14;77.22
64111;DHT22;50401;48.188;11.566;2022-10-17T06:03:15;14.26;76.84
64111;DHT22;50401;48.188;11.566;2022-10-17T06:05:40;14.32;76.57
64111;DHT22;50401;48.188;11.566;2022-10-17T06:08:06;14.37;76.43
64111;DHT22;50401;48.188;11.566;2022-10-17T06:10:31;14.67;75.70
64111;DHT22;50401;48.188;11.566;2022-10-17T06:12:57;14.88;75.03
64111;DHT22;50401;48.188;11.566;2022-10-17T06:15:22;14.85;74.69
64111;DHT22;50401;48.188;11.566;2022-10-17T06:17:47;14.43;75.89
64111;DHT22;50401;48.188;11.566;2022-10-17T06:20:13;14.24;76.85
64111;DHT22;50401;48.188;11.566;2022-10-17T06:22:39;14.71;75.55
64111;DHT22;50401;48.188;11.566;2022-10-17T06:25:04;15.18;74.51
64111;DHT22;50401;48.188;11.566;2022-10-17T06:27:29;15.67;72.90
64111;DHT22;50401;48.188;11.566;2022-10-17T06:29:55;15.98;72.03
64111;DHT22;50401;48.188;11.566;2022-10-17T06:32:20;16.48;70.37
64111;DHT22;50401;48.188;11.566;2022-10-17T06:34:45;17.02;68.43
64111;DHT22;50401;48.188;11.566;2022-10-17T06:37:10;18.27;64.37
64111;DHT22;50401;48.188;11.566;2022-10-17T06:39:36;19.04;62.24
64111;DHT22;50401;48.188;11.566;2022-10-17T06:42:02;18.99;61.66
64111;DHT22;50401;48.188;11.566;2022-10-17T06:44:28;20.22;59.44
64111;DHT22;50401;48.188;11.566;2022-10-17T06:46:56;21.78;55.50
64111;DHT22;50401;48.188;11.566;2022-10-17T06:49:21;23.27;51.28
64111;DHT22;50401;48.188;11.566;2022-10-17T06:51:47;24.15;48.46
64111;DHT22;50401;48.188;11.566;2022-10-17T06:54:12;24.95;46.30
64111;DHT22;50401;48.188;11.566;2022-10-17T06:56:37;24.91;45.00
64111;DHT22;50401;48.188;11.566;2022-10-17T06:59:03;24.22;46.39
64111;DHT22;50401;48.188;11.566;2022-10-17T07:01:29;25.23;45.79
64111;DHT22;50401;48.188;11.566;2022-10-17T07:03:54;26.93;42.22
64111;DHT22;50401;48.188;11.566;2022-10-17T07:06:20;27.96;40.07
64111;DHT22;50401;48.188;11.566;2022-10-17T07:08:48;28.44;39.08
64111;DHT22;50401;48.188;11.566;2022-10-17T07:11:15;28.32;38.83
64111;DHT22;50401;48.188;11.566;2022-10-17T07:13:41;27.66;40.12
64111;DHT22;50401;48.188;11.566;2022-10-17T07:16:06;26.93;41.25
64111;DHT22;50401;48.188;11.566;2022-10-17T07:18:32;28.41;38.86
64111;DHT22;50401;48.188;11.566;2022-10-17T07:20:58;29.17;37.40
64111;DHT22;50401;48.188;11.566;2022-10-17T07:23:23;28.56;37.98
64111;DHT22;50401;48.188;11.566;2022-10-17T07:25:48;29.46;36.96
64111;DHT22;50401;48.188;11.566;2022-10-17T07:28:14;30.70;35.16
64111;DHT22;50401;48.188;11.566;2022-10-17T07:30:39;32.12;32.88
64111;DHT22;50401;48.188;11.566;2022-10-17T07:33:04;33.15;31.50
64111;DHT22;50401;48.188;11.566;2022-10-17T07:35:30;33.95;30.56
64111;DHT22;50401;48.188;11.566;2022-10-17T07:37:55;34.72;29.37
64111;DHT22;50401;48.188;11.566;2022-10-17T07:40:20;35.02;29.01
64111;DHT22;50401;48.188;11.566;2022-10-17T07:42:46;35.29;28.93
64111;DHT22;50401;48.188;11.566;2022-10-17T07:45:11;35.70;28.52
64111;DHT22;50401;48.188;11.566;2022-10-17T07:47:36;36.25;27.59
64111;DHT22;50401;48.188;11.566;2022-10-17T07:50:03;36.36;27.47
64111;DHT22;50401;48.188;11.566;2022-10-17T07:52:28;36.27;27.48
64111;DHT22;50401;48.188;11.566;2022-10-17T07:54:53;36.85;27.05
64111;DHT22;50401;48.188;11.566;2022-10-17T07:57:22;36.84;26.13
64111;DHT22;50401;48.188;11.566;2022-10-17T07:59:47;36.60;26.31
64111;DHT22;50401;48.188;11.566;2022-10-17T08:02:20;36.82;25.77
64111;DHT22;50401;48.188;11.566;2022-10-17T08:04:45;36.74;26.03
64111;DHT22;50401;48.188;11.566;2022-10-17T08:07:11;36.48;25.94
64111;DHT22;50401;48.188;11.566;2022-10-17T08:09:36;36.78;25.97
64111;DHT22;50401;48.188;11.566;2022-10-17T08:12:01;37.06;26.08
64111;DHT22;50401;48.188;11.566;2022-10-17T08:14:26;37.11;25.52
64111;DHT22;50401;48.188;11.566;2022-10-17T08:16:53;37.64;25.08
64111;DHT22;50401;48.188;11.566;2022-10-17T08:19:18;37.55;25.00
64111;DHT22;50401;48.188;11.566;2022-10-17T08:21:43;37.48;25.34
64111;DHT22;50401;48.188;11.566;2022-10-17T08:24:10;37.36;25.40
64111;DHT22;50401;48.188;11.566;2022-10-17T08:26:36;37.11;25.57
64111;DHT22;50401;48.188;11.566;2022-10-17T08:29:01;37.20;25.65
64111;DHT22;50401;48.188;11.566;2022-10-17T08:31:26;37.51;25.53
64111;DHT22;50401;48.188;11.566;2022-10-17T08:33:52;37.75;25.33
64111;DHT22;50401;48.188;11.566;2022-10-17T08:36:18;37.00;25.95
64111;DHT22;50401;48.188;11.566;2022-10-17T08:38:43;37.60;25.60
64111;DHT22;50401;48.188;11.566;2022-10-17T08:41:31;37.63;25.26
64111;DHT22;50401;48.188;11.566;2022-10-17T08:46:40;37.27;25.71
64111;DHT22;50401;48.188;11.566;2022-10-17T08:49:09;37.00;26.37
64111;DHT22;50401;48.188;11.566;2022-10-17T08:51:35;36.66;26.44
64111;DHT22;50401;48.188;11.566;2022-10-17T08:54:44;36.37;27.08
64111;DHT22;50401;48.188;11.566;2022-10-17T08:56:51;36.09;27.65
64111;DHT22;50401;48.188;11.566;2022-10-17T08:59:26;35.89;27.92
64111;DHT22;50401;48.188;11.566;2022-10-17T09:07:03;33.56;30.61
64111;DHT22;50401;48.188;11.566;2022-10-17T09:09:33;32.41;32.64
64111;DHT22;50401;48.188;11.566;2022-10-17T09:20:15;27.67;40.43
64111;DHT22;50401;48.188;11.566;2022-10-17T09:22:56;27.74;40.76
64111;DHT22;50401;48.188;11.566;2022-10-17T09:25:22;26.82;42.24
64111;DHT22;50401;48.188;11.566;2022-10-17T09:28:10;26.95;42.11
64111;DHT22;50401;48.188;11.566;2022-10-17T09:33:11;26.23;43.79
64111;DHT22;50401;48.188;11.566;2022-10-17T09:35:37;26.14;44.19
64111;DHT22;50401;48.188;11.566;2022-10-17T09:38:03;25.97;44.01
64111;DHT22;50401;48.188;11.566;2022-10-17T09:40:32;25.86;44.29
64111;DHT22;50401;48.188;11.566;2022-10-17T09:42:58;25.67;44.61
64111;DHT22;50401;48.188;11.566;2022-10-17T09:45:26;25.48;44.50
64111;DHT22;50401;48.188;11.566;2022-10-17T09:52:54;24.99;45.83
64111;DHT22;50401;48.188;11.566;2022-10-17T09:57:53;24.68;47.01
64111;DHT22;50401;48.188;11.566;2022-10-17T10:00:20;24.51;46.73
64111;DHT22;50401;48.188;11.566;2022-10-17T10:02:49;24.22;47.59
64111;DHT22;50401;48.188;11.566;2022-10-17T10:05:15;24.17;48.16
64111;DHT22;50401;48.188;11.566;2022-10-17T10:07:41;24.09;48.26
64111;DHT22;50401;48.188;11.566;2022-10-17T10:10:21;24.01;48.98
64111;DHT22;50401;48.188;11.566;2022-10-17T10:13:00;23.82;49.36
64111;DHT22;50401;48.188;11.566;2022-10-17T10:15:31;23.61;49.93
64111;DHT22;50401;48.188;11.566;2022-10-17T10:17:57;23.38;50.21
64111;DHT22;50401;48.188;11.566;2022-10-17T10:20:24;23.32;50.83
64111;DHT22;50401;48.188;11.566;2022-10-17T10:25:34;22.83;50.95
64111;DHT22;50401;48.188;11.566;2022-10-17T10:27:59;22.80;51.52
64111;DHT22;50401;48.188;11.566;2022-10-17T10:30:27;22.72;52.63
64111;DHT22;50401;48.188;11.566;2022-10-17T10:32:53;22.67;52.78
64111;DHT22;50401;48.188;11.566;2022-10-17T10:35:21;22.60;52.73
64111;DHT22;50401;48.188;11.566;2022-10-17T10:37:48;22.59;52.80
64111;DHT22;50401;48.188;11.566;2022-10-17T10:42:50;22.46;52.98
64111;DHT22;50401;48.188;11.566;2022-10-17T10:52:42;22.32;53.21
64111;DHT22;50401;48.188;11.566;2022-10-17T10:55:22;22.29;53.38
64111;DHT22;50401;48.188;11.566;2022-10-17T10:57:50;22.21;52.87
64111;DHT22;50401;48.188;11.566;2022-10-17T11:00:18;22.22;53.26
64111;DHT22;50401;48.188;11.566;2022-10-17T11:02:48;22.28;53.44
64111;DHT22;50401;48.188;11.566;2022-10-17T11:05:20;22.28;53.50
64111;DHT22;50401;48.188;11.566;2022-10-17T11:07:52;22.29;53.67
64111;DHT22;50401;48.188;11.566;2022-10-17T11:20:22;22.22;52.53
64111;DHT22;50401;48.188;11.566;2022-10-17T11:22:52;22.18;52.43
64111;DHT22;50401;48.188;11.566;2022-10-17T11:27:43;22.11;52.55
64111;DHT22;50401;48.188;11.566;2022-10-17T11:30:11;22.19;52.64
64111;DHT22;50401;48.188;11.566;2022-10-17T11:32:39;22.16;52.59
64111;DHT22;50401;48.188;11.566;2022-10-17T11:35:07;22.16;52.66
64111;DHT22;50401;48.188;11.566;2022-10-17T11:37:39;22.23;52.92
64111;DHT22;50401;48.188;11.566;2022-10-17T11:40:26;22.26;52.67
64111;DHT22;50401;48.188;11.566;2022-10-17T11:43:00;22.30;52.99
64111;DHT22;50401;48.188;11.566;2022-10-17T11:45:28;22.35;52.64
64111;DHT22;50401;48.188;11.566;2022-10-17T11:47:59;22.29;52.01
64111;DHT22;50401;48.188;11.566;2022-10-17T11:53:10;22.28;52.34
64111;DHT22;50401;48.188;11.566;2022-10-17T11:55:37;22.33;52.00
64111;DHT22;50401;48.188;11.566;2022-10-17T11:58:12;22.32;51.93
64111;DHT22;50401;48.188;11.566;2022-10-17T12:03:25;22.36;51.00
64111;DHT22;50401;48.188;11.566;2022-10-17T12:05:56;22.39;50.45
64111;DHT22;50401;48.188;11.566;2022-10-17T12:08:24;22.37;49.89
64111;DHT22;50401;48.188;11.566;2022-10-17T12:10:58;22.43;49.98
64111;DHT22;50401;48.188;11.566;2022-10-17T12:15:55;22.43;50.19
64111;DHT22;50401;48.188;11.566;2022-10-17T12:18:24;22.50;50.21
64111;DHT22;50401;48.188;11.566;2022-10-17T12:20:54;22.57;48.49
64111;DHT22;50401;48.188;11.566;2022-10-17T12:23:22;22.59;49.06
64111;DHT22;50401;48.188;11.566;2022-10-17T12:25:54;22.59;49.22
64111;DHT22;50401;48.188;11.566;2022-10-17T12:31:00;22.63;49.04
64111;DHT22;50401;48.188;11.566;2022-10-17T12:38:44;22.70;49.87
64111;DHT22;50401;48.188;11.566;2022-10-17T12:41:10;22.65;49.40
64111;DHT22;50401;48.188;11.566;2022-10-17T12:46:01;22.74;48.40
64111;DHT22;50401;48.188;11.566;2022-10-17T12:51:00;22.86;48.80
64111;DHT22;50401;48.188;11.566;2022-10-17T12:53:26;22.90;47.99
64111;DHT22;50401;48.188;11.566;2022-10-17T12:56:00;22.91;47.97
64111;DHT22;50401;48.188;11.566;2022-10-17T12:58:25;22.95;47.15
64111;DHT22;50401;48.188;11.566;2022-10-17T13:00:52;22.99;47.01
64111;DHT22;50401;48.188;11.566;2022-10-17T13:03:22;23.11;46.20
64111;DHT22;50401;48.188;11.566;2022-10-17T13:05:49;23.15;46.00
64111;DHT22;50401;48.188;11.566;2022-10-17T13:08:20;23.16;46.22
64111;DHT22;50401;48.188;11.566;2022-10-17T13:10:46;23.15;47.24
64111;DHT22;50401;48.188;11.566;2022-10-17T13:13:19;23.09;48.01
64111;DHT22;50401;48.188;11.566;2022-10-17T13:15:45;23.11;48.21
64111;DHT22;50401;48.188;11.566;2022-10-17T13:18:14;23.02;48.17
64111;DHT22;50401;48.188;11.566;2022-10-17T13:20:41;22.99;47.41
64111;DHT22;50401;48.188;11.566;2022-10-17T13:23:20;22.97;47.38
64111;DHT22;50401;48.188;11.566;2022-10-17T13:25:45;23.08;46.59
64111;DHT22;50401;48.188;11.566;2022-10-17T13:28:11;23.11;46.86
64111;DHT22;50401;48.188;11.566;2022-10-17T13:30:37;23.05;47.38
64111;DHT22;50401;48.188;11.566;2022-10-17T13:33:14;23.02;47.82
64111;DHT22;50401;48.188;11.566;2022-10-17T13:35:40;22.99;47.99
64111;DHT22;50401;48.188;11.566;2022-10-17T13:38:05;22.98;48.31
64111;DHT22;50401;48.188;11.566;2022-10-17T13:40:38;22.94;48.32
64111;DHT22;50401;48.188;11.566;2022-10-17T13:43:04;22.95;48.57
64111;DHT22;50401;48.188;11.566;2022-10-17T13:45:36;22.98;48.26
64111;DHT22;50401;48.188;11.566;2022-10-17T13:48:04;23.01;48.27
64111;DHT22;50401;48.188;11.566;2022-10-17T13:50:33;23.05;48.17
64111;DHT22;50401;48.188;11.566;2022-10-17T13:55:37;23.02;48.73
64111;DHT22;50401;48.188;11.566;2022-10-17T13:58:10;22.99;48.57
64111;DHT22;50401;48.188;11.566;2022-10-17T14:00:38;23.05;48.41
64111;DHT22;50401;48.188;11.566;2022-10-17T14:03:03;23.04;48.22
64111;DHT22;50401;48.188;11.566;2022-10-17T14:05:29;23.05;47.10
64111;DHT22;50401;48.188;11.566;2022-10-17T14:07:55;23.09;47.01
64111;DHT22;50401;48.188;11.566;2022-10-17T14:10:22;23.06;47.14
64111;DHT22;50401;48.188;11.566;2022-10-17T14:12:48;23.06;47.41
64111;DHT22;50401;48.188;11.566;2022-10-17T14:15:14;23.06;47.57
64111;DHT22;50401;48.188;11.566;2022-10-17T14:17:40;23.05;47.03
64111;DHT22;50401;48.188;11.566;2022-10-17T14:20:05;22.99;47.57
64111;DHT22;50401;48.188;11.566;2022-10-17T14:22:35;23.02;48.03
64111;DHT22;50401;48.188;11.566;2022-10-17T14:25:01;22.97;48.25
64111;DHT22;50401;48.188;11.566;2022-10-17T14:29:56;22.99;48.96
64111;DHT22;50401;48.188;11.566;2022-10-17T14:32:28;22.95;50.47
64111;DHT22;50401;48.188;11.566;2022-10-17T14:34:55;22.91;51.06
64111;DHT22;50401;48.188;11.566;2022-10-17T14:37:28;22.90;51.40
64111;DHT22;50401;48.188;11.566;2022-10-17T14:39:54;22.88;51.59
64111;DHT22;50401;48.188;11.566;2022-10-17T14:42:22;22.83;51.71
64111;DHT22;50401;48.188;11.566;2022-10-17T14:44:48;22.80;51.90
64111;DHT22;50401;48.188;11.566;2022-10-17T14:47:16;22.74;51.93
64111;DHT22;50401;48.188;11.566;2022-10-17T14:49:42;22.72;52.19
64111;DHT22;50401;48.188;11.566;2022-10-17T14:52:29;22.67;52.27
64111;DHT22;50401;48.188;11.566;2022-10-17T14:54:54;22.63;52.32
64111;DHT22;50401;48.188;11.566;2022-10-17T14:59:56;22.59;51.87
64111;DHT22;50401;48.188;11.566;2022-10-17T15:02:23;22.53;51.91
64111;DHT22;50401;48.188;11.566;2022-10-17T15:04:48;22.49;52.08
64111;DHT22;50401;48.188;11.566;2022-10-17T15:07:14;22.47;52.20
64111;DHT22;50401;48.188;11.566;2022-10-17T15:09:40;22.43;52.15
64111;DHT22;50401;48.188;11.566;2022-10-17T15:12:06;22.37;52.19
64111;DHT22;50401;48.188;11.566;2022-10-17T15:14:35;22.35;52.22
64111;DHT22;50401;48.188;11.566;2022-10-17T15:17:00;22.32;52.16
64111;DHT22;50401;48.188;11.566;2022-10-17T15:19:26;22.25;52.16
64111;DHT22;50401;48.188;11.566;2022-10-17T15:21:51;22.21;52.31
64111;DHT22;50401;48.188;11.566;2022-10-17T15:24:16;22.16;52.12
64111;DHT22;50401;48.188;11.566;2022-10-17T15:26:41;22.11;52.27
64111;DHT22;50401;48.188;11.566;2022-10-17T15:29:13;22.06;52.24
64111;DHT22;50401;48.188;11.566;2022-10-17T15:31:38;22.04;52.22
64111;DHT22;50401;48.188;11.566;2022-10-17T15:34:04;22.00;52.13
64111;DHT22;50401;48.188;11.566;2022-10-17T15:36:32;21.97;52.16
64111;DHT22;50401;48.188;11.566;2022-10-17T15:38:59;21.88;52.45
64111;DHT22;50401;48.188;11.566;2022-10-17T15:41:27;21.84;52.45
64111;DHT22;50401;48.188;11.566;2022-10-17T15:43:52;21.80;52.54
64111;DHT22;50401;48.188;11.566;2022-10-17T15:46:19;21.74;52.55
64111;DHT22;50401;48.188;11.566;2022-10-17T15:48:45;21.71;52.82
64111;DHT22;50401;48.188;11.566;2022-10-17T15:51:10;21.64;52.91
64111;DHT22;50401;48.188;11.566;2022-10-17T15:53:36;21.59;52.84
64111;DHT22;50401;48.188;11.566;2022-10-17T15:56:02;21.57;52.87
64111;DHT22;50401;48.188;11.566;2022-10-17T15:58:30;21.52;52.93
64111;DHT22;50401;48.188;11.566;2022-10-17T16:00:57;21.50;53.11
64111;DHT22;50401;48.188;11.566;2022-10-17T16:03:22;21.46;53.20
64111;DHT22;50401;48.188;11.566;2022-10-17T16:05:48;21.43;53.35
64111;DHT22;50401;48.188;11.566;2022-10-17T16:08:13;21.39;53.47
64111;DHT22;50401;48.188;11.566;2022-10-17T16:10:38;21.34;53.80
64111;DHT22;50401;48.188;11.566;2022-10-17T16:13:04;21.31;54.01
64111;DHT22;50401;48.188;11.566;2022-10-17T16:15:29;21.25;54.11
64111;DHT22;50401;48.188;11.566;2022-10-17T16:17:55;21.19;54.64
64111;DHT22;50401;48.188;11.566;2022-10-17T16:20:21;21.15;54.79
64111;DHT22;50401;48.188;11.566;2022-10-17T16:22:47;21.10;54.99
64111;DHT22;50401;48.188;11.566;2022-10-17T16:25:19;21.02;55.17
64111;DHT22;50401;48.188;11.566;2022-10-17T16:27:45;20.95;55.48
64111;DHT22;50401;48.188;11.566;2022-10-17T16:30:11;20.93;55.69
64111;DHT22;50401;48.188;11.566;2022-10-17T16:32:36;20.85;55.91
64111;DHT22;50401;48.188;11.566;2022-10-17T16:35:02;20.81;56.10
64111;DHT22;50401;48.188;11.566;2022-10-17T16:37:27;20.76;56.48
64111;DHT22;50401;48.188;11.566;2022-10-17T16:39:52;20.73;56.80
64111;DHT22;50401;48.188;11.566;2022-10-17T16:42:18;20.67;57.21
64111;DHT22;50401;48.188;11.566;2022-10-17T16:44:44;20.59;57.29
64111;DHT22;50401;48.188;11.566;2022-10-17T16:47:09;20.55;57.49
64111;DHT22;50401;48.188;11.566;2022-10-17T16:49:35;20.52;57.85
64111;DHT22;50401;48.188;11.566;2022-10-17T16:52:01;20.45;58.12
64111;DHT22;50401;48.188;11.566;2022-10-17T16:54:26;20.39;58.20
64111;DHT22;50401;48.188;11.566;2022-10-17T16:56:51;20.38;57.90
64111;DHT22;50401;48.188;11.566;2022-10-17T16:59:17;20.35;57.97
64111;DHT22;50401;48.188;11.566;2022-10-17T17:01:42;20.31;58.14
64111;DHT22;50401;48.188;11.566;2022-10-17T17:04:07;20.24;58.39
64111;DHT22;50401;48.188;11.566;2022-10-17T17:06:33;20.17;58.53
64111;DHT22;50401;48.188;11.566;2022-10-17T17:08:59;20.14;58.66
64111;DHT22;50401;48.188;11.566;2022-10-17T17:11:24;20.11;58.98
64111;DHT22;50401;48.188;11.566;2022-10-17T17:13:50;20.08;58.89